Airfield :
LOGIN :

Register | Disclaimer

   EN    FR    IT 

 










Legend :    VFR   Marginal VFR   IFR   Intensive IFR   Very Intensive IFR
Visi :
Ceiling :
>= 8 km
>= 3000ft
5 to 8 km
1000 to 3000 ft
1500m to 5 km
500 to 1000 ft
800 to 1500m
200 to 500 ft
< 800m
< 200 ft
Symbols :   Thunderstorms  Fog  Heavy snow  Heavy precipitations  Wind > 20 kt
SIGMETs :     Misc.  Thunderstorms  Icing  Turbulence  Mountain Waves  Volcanic Ashes






- Airport Elevation : 286 ft
- IATA code : TRF


ENTO - Sandefjord , Torp

CURRENT METAR :
  • 280550Z VRB02KT CAVOK M04/M06 Q1000 TEMPO 4000 -SN VV012

EXPIRED METARs :
  • 280520Z 36003KT CAVOK M04/M06 Q1000 TEMPO 4000 -SN VV012
  • 280450Z 33003KT CAVOK M04/M07 Q1000
  • 280420Z AUTO 34002KT 9999 OVC064/// M04/M07 Q1000
  • 280350Z AUTO 36003KT 9999 BKN074/// M04/M07 Q1000
  • 280320Z AUTO 36004KT 9999 FEW048/// BKN086/// M04/M07 Q1000

COR TAF ENTO
Valid from the 28 at 06:00 until the 29 at 06:00 UTC


2806/2906 02007KT 9999 FEW015 BKN040
TEMPO 2806/2811 4000 -SN VV012
BECMG 2809/2812 22010KT
BECMG 2821/2824 VRB05KT
TEMPO 2900/2906 1500 SHSN VV009



MET'MAP, your aeronautical weather chart ! - Copyright ORBIFLY December 2007 - Disclaimer

ORBIFLY MET'MAP TEAM :

Programming & Development : Alexandra Zaïnal
Concept & original design : Baudouin d'Aumeries
Assistance for programming : Marc-Olivier Méhu
Technical & hardware support : Manuel Goepfert

Contact : metmap@orbifly.com




SOURCES & CREDITS :

   NOAA